Time;durP1;ratioP1;P1;durP2;ratioP2;P2;SDS_P1;SDS_P2;PMS_P1;PMS_P2;Temp;Humidity;BMP_temperature;BMP_pressure;BME280_temperature;BME280_humidity;BME280_pressure;Samples;Min_cycle;Max_cycle;Signal;HPM_P1;HPM_P2
2023/04/02 00:00:31;;;;;;;6.97;3.47;;;;;;;3.41;100.00;100263.59;6282274;28;19924;-90
2023/04/02 00:03:40;;;;;;;6.13;3.55;;;;;;;3.41;100.00;100281.50;6282644;28;20126;-90
2023/04/02 00:06:53;;;;;;;5.05;3.85;;;;;;;3.48;100.00;100297.38;6283539;28;20145;-90
2023/04/02 00:09:56;;;;;;;7.68;4.13;;;;;;;3.53;100.00;100297.09;6265560;28;20106;-89
2023/04/02 00:13:30;;;;;;;5.90;3.38;;;;;;;3.44;100.00;100300.97;6279223;28;20553;-90
2023/04/02 00:16:32;;;;;;;5.97;3.33;;;;;;;3.40;100.00;100304.59;6267020;28;20060;-89
2023/04/02 00:20:05;;;;;;;6.78;4.15;;;;;;;3.47;100.00;100323.03;6273164;28;20922;-89
2023/04/02 00:23:14;;;;;;;5.20;3.08;;;;;;;3.42;100.00;100316.41;6272924;28;20505;-89
2023/04/02 00:26:32;;;;;;;5.75;3.30;;;;;;;3.32;100.00;100324.66;6276242;28;20488;-89
2023/04/02 00:29:34;;;;;;;7.53;3.28;;;;;;;3.34;100.00;100330.50;6253351;28;20211;-89
2023/04/02 00:32:39;;;;;;;6.32;3.10;;;;;;;3.31;100.00;100338.34;6252537;28;20048;-89
2023/04/02 00:35:41;;;;;;;6.68;2.97;;;;;;;3.25;100.00;100339.47;6284206;28;20036;-89
2023/04/02 00:38:44;;;;;;;4.38;2.88;;;;;;;3.24;100.00;100351.44;6244863;28;20048;-89
2023/04/02 00:41:53;;;;;;;5.88;3.10;;;;;;;3.21;100.00;100354.16;6266498;28;20056;-89
2023/04/02 00:44:57;;;;;;;5.00;2.58;;;;;;;3.25;100.00;100357.38;6281689;28;20044;-89
2023/04/02 00:48:12;;;;;;;5.18;3.38;;;;;;;3.17;100.00;100360.34;6282295;28;20761;-89
2023/04/02 00:51:45;;;;;;;5.20;2.70;;;;;;;3.19;100.00;100355.97;6273840;28;20211;-89
2023/04/02 00:54:51;;;;;;;6.20;2.63;;;;;;;3.20;100.00;100369.56;6279218;28;20584;-89
2023/04/02 00:57:56;;;;;;;7.70;3.15;;;;;;;3.28;100.00;100369.19;6284806;28;21170;-89
2023/04/02 01:01:00;;;;;;;6.95;2.75;;;;;;;3.23;100.00;100366.88;6285899;28;20052;-89
2023/04/02 01:04:04;;;;;;;5.55;2.60;;;;;;;3.17;100.00;100368.00;6286128;28;20137;-89
2023/04/02 01:07:10;;;;;;;5.50;2.50;;;;;;;3.14;100.00;100373.28;6277425;28;20513;-89
2023/04/02 01:10:25;;;;;;;3.35;2.22;;;;;;;3.11;100.00;100370.06;6275563;28;20045;-89
2023/04/02 01:13:36;;;;;;;6.65;2.40;;;;;;;3.08;100.00;100376.16;6282163;28;20245;-89
2023/04/02 01:17:32;;;;;;;5.93;2.10;;;;;;;3.06;100.00;100379.69;6285964;28;20048;-89
2023/04/02 01:20:46;;;;;;;6.72;2.58;;;;;;;3.05;100.00;100399.31;6278099;28;20041;-89
2023/04/02 01:24:07;;;;;;;5.65;2.60;;;;;;;3.05;100.00;100393.38;6282521;28;20118;-89
2023/04/02 01:27:20;;;;;;;3.00;2.30;;;;;;;3.08;100.00;100396.63;6280160;28;20057;-89
2023/04/02 01:30:23;;;;;;;5.28;2.15;;;;;;;3.06;100.00;100406.09;6282663;28;20040;-89
2023/04/02 01:33:30;;;;;;;4.78;2.33;;;;;;;3.06;100.00;100412.94;6281206;28;20037;-89
2023/04/02 01:36:50;;;;;;;6.85;2.10;;;;;;;2.95;100.00;100408.34;6264340;28;20144;-89
2023/04/02 01:40:11;;;;;;;8.65;4.03;;;;;;;2.94;100.00;100422.84;6281439;28;20059;-90
2023/04/02 01:43:43;;;;;;;6.15;2.50;;;;;;;2.91;100.00;100433.25;6273553;28;20459;-89
2023/04/02 01:46:49;;;;;;;7.47;2.78;;;;;;;2.88;100.00;100425.72;6245346;28;20059;-89
2023/04/02 01:49:56;;;;;;;8.25;2.42;;;;;;;2.89;100.00;100429.91;6278979;28;20500;-89
2023/04/02 01:53:07;;;;;;;6.53;2.50;;;;;;;2.89;100.00;100434.22;6282825;28;20044;-89
2023/04/02 01:56:10;;;;;;;6.28;2.47;;;;;;;2.87;100.00;100451.34;6281123;28;20055;-89
2023/04/02 01:59:15;;;;;;;6.85;2.25;;;;;;;2.89;100.00;100454.66;6284028;28;20131;-89
2023/04/02 02:02:20;;;;;;;4.43;2.40;;;;;;;2.86;100.00;100458.19;6282821;28;20060;-90
2023/04/02 02:05:23;;;;;;;8.52;4.28;;;;;;;2.78;100.00;100458.56;6250642;28;20118;-89
2023/04/02 02:08:58;;;;;;;3.72;2.13;;;;;;;2.82;100.00;100473.75;6285022;28;20253;-90
2023/04/02 02:12:02;;;;;;;5.75;2.47;;;;;;;2.82;100.00;100482.25;6283884;28;20060;-89
2023/04/02 02:15:17;;;;;;;3.38;1.83;;;;;;;2.83;100.00;100488.19;6285504;28;20070;-90
2023/04/02 02:18:22;;;;;;;6.68;2.10;;;;;;;2.77;100.00;100486.75;6276466;28;20086;-89
2023/04/02 02:21:46;;;;;;;4.53;2.00;;;;;;;2.81;100.00;100493.38;6283165;28;20041;-89
2023/04/02 02:24:49;;;;;;;3.47;1.65;;;;;;;2.76;100.00;100496.16;6282724;28;20073;-89
2023/04/02 02:28:15;;;;;;;4.55;1.80;;;;;;;2.73;100.00;100506.53;6283197;28;20048;-89
2023/04/02 02:31:36;;;;;;;4.03;1.77;;;;;;;2.79;100.00;100518.19;6266084;28;20053;-90
2023/04/02 02:35:17;;;;;;;4.45;1.75;;;;;;;2.81;100.00;100513.81;6282947;28;20044;-89
2023/04/02 02:38:38;;;;;;;4.18;1.95;;;;;;;2.72;100.00;100522.75;6282165;28;20585;-89
2023/04/02 02:41:53;;;;;;;4.93;1.98;;;;;;;2.78;100.00;100525.03;6268116;28;20377;-90
2023/04/02 02:45:04;;;;;;;6.30;2.13;;;;;;;2.77;100.00;100537.88;6283151;28;20041;-89
2023/04/02 02:48:15;;;;;;;2.72;1.67;;;;;;;2.73;100.00;100538.88;6282399;28;20445;-89
2023/04/02 02:51:26;;;;;;;4.88;1.85;;;;;;;2.72;100.00;100548.28;6281630;28;20049;-90
2023/04/02 02:54:30;;;;;;;;;;;;;;;2.72;100.00;100558.50;6283317;28;20040;-89
2023/04/02 02:57:36;;;;;;;7.32;1.65;;;;;;;2.75;100.00;100565.22;6280621;28;20387;-89
2023/04/02 03:00:42;;;;;;;5.45;1.73;;;;;;;2.79;100.00;100567.56;6283407;28;20508;-90
2023/04/02 03:03:46;;;;;;;4.80;1.77;;;;;;;2.76;100.00;100564.34;6267414;28;20738;-91
2023/04/02 03:06:52;;;;;;;3.30;1.60;;;;;;;2.69;100.00;100571.44;6283197;28;20495;-89
2023/04/02 03:10:32;;;;;;;2.38;1.73;;;;;;;2.61;100.00;100583.75;6275276;28;20364;-89
2023/04/02 03:13:39;;;;;;;2.88;1.27;;;;;;;2.64;100.00;100587.88;6285666;28;20493;-90
2023/04/02 03:16:46;;;;;;;4.97;1.77;;;;;;;2.61;100.00;100588.84;6284735;28;20076;-89
2023/04/02 03:20:11;;;;;;;4.45;1.85;;;;;;;2.61;100.00;100596.53;6282079;28;20127;-89
2023/04/02 03:23:16;;;;;;;3.60;1.85;;;;;;;2.58;100.00;100599.19;6278083;28;20051;-89
2023/04/02 03:26:51;;;;;;;4.32;1.52;;;;;;;2.57;100.00;100607.75;6284844;28;20044;-89
2023/04/02 03:30:34;;;;;;;2.13;1.58;;;;;;;2.59;100.00;100611.09;6293461;28;20043;-89
2023/04/02 03:33:41;;;;;;;5.05;1.60;;;;;;;2.55;100.00;100619.78;6281797;28;20037;-90
2023/04/02 03:37:04;;;;;;;3.80;1.83;;;;;;;2.55;100.00;100628.25;6282989;28;20044;-90
2023/04/02 03:40:32;;;;;;;4.70;2.00;;;;;;;2.56;100.00;100634.22;6283934;28;20223;-89
2023/04/02 03:43:55;;;;;;;3.97;1.65;;;;;;;2.58;100.00;100646.03;6267991;28;20045;-89
2023/04/02 03:47:03;;;;;;;2.85;1.40;;;;;;;2.65;100.00;100650.88;6262447;28;20063;-89
2023/04/02 03:50:27;;;;;;;3.03;1.50;;;;;;;2.62;100.00;100654.38;6277881;28;20048;-90
2023/04/02 03:53:32;;;;;;;2.17;1.40;;;;;;;2.55;100.00;100655.53;6278958;28;20638;-89
2023/04/02 03:56:42;;;;;;;2.75;1.50;;;;;;;2.56;100.00;100663.16;6258946;28;20170;-89
2023/04/02 04:00:04;;;;;;;3.75;1.80;;;;;;;2.60;100.00;100674.06;6274653;28;20078;-89
2023/04/02 04:03:39;;;;;;;4.10;1.50;;;;;;;2.57;100.00;100682.69;6286494;28;20056;-89
2023/04/02 04:06:45;;;;;;;2.13;1.40;;;;;;;2.62;100.00;100677.38;6290020;28;20036;-89
2023/04/02 04:09:51;;;;;;;4.50;1.65;;;;;;;2.65;100.00;100689.19;6291040;28;20502;-89
2023/04/02 04:12:56;;;;;;;2.95;1.60;;;;;;;2.61;100.00;100693.63;6287852;28;20287;-89
2023/04/02 04:16:21;;;;;;;4.03;1.50;;;;;;;2.64;100.00;100705.44;6280336;28;20190;-89
2023/04/02 04:19:38;;;;;;;2.08;1.52;;;;;;;2.65;100.00;100712.19;6288184;28;20564;-89
2023/04/02 04:22:42;;;;;;;3.88;1.77;;;;;;;2.54;100.00;100715.22;6287478;28;20051;-89
2023/04/02 04:25:58;;;;;;;2.00;1.10;;;;;;;2.61;100.00;100719.19;6288267;28;20094;-89
2023/04/02 04:29:18;;;;;;;3.85;1.73;;;;;;;2.63;100.00;100726.75;6287867;28;20044;-89
2023/04/02 04:32:26;;;;;;;2.50;1.42;;;;;;;2.54;100.00;100728.00;6288124;28;20173;-89
2023/04/02 04:35:36;;;;;;;4.07;2.13;;;;;;;2.58;100.00;100721.84;6272355;28;20498;-89
2023/04/02 04:38:54;;;;;;;4.90;1.63;;;;;;;2.53;100.00;100736.53;6282902;28;20060;-89
2023/04/02 04:42:01;;;;;;;3.60;1.83;;;;;;;2.58;100.00;100748.25;6271448;28;20551;-89
2023/04/02 04:45:36;;;;;;;3.50;1.55;;;;;;;2.57;100.00;100755.97;6286047;28;20047;-89
2023/04/02 04:48:53;;;;;;;2.40;1.20;;;;;;;2.62;100.00;100763.44;6286077;28;20044;-89
2023/04/02 04:52:06;;;;;;;2.60;1.40;;;;;;;2.61;100.00;100772.84;6288279;28;20040;-89
2023/04/02 04:55:41;;;;;;;4.00;1.40;;;;;;;2.60;100.00;100781.38;6270174;28;20052;-89
2023/04/02 04:59:11;;;;;;;3.38;1.50;;;;;;;2.59;100.00;100785.66;6278534;28;20060;-89
2023/04/02 05:02:26;;;;;;;2.67;1.65;;;;;;;2.57;100.00;100796.84;6288799;28;20621;-89
2023/04/02 05:05:32;;;;;;;2.67;1.88;;;;;;;2.59;100.00;100807.84;6288176;28;20079;-89
2023/04/02 05:08:44;;;;;;;5.15;2.22;;;;;;;2.55;100.00;100809.69;6287376;28;20051;-89
2023/04/02 05:11:58;;;;;;;4.78;2.22;;;;;;;2.59;100.00;100813.78;6286300;28;20036;-89
2023/04/02 05:15:22;;;;;;;3.85;1.30;;;;;;;2.65;100.00;100817.81;6286341;28;20454;-90
2023/04/02 05:18:37;;;;;;;1.23;1.10;;;;;;;2.62;100.00;100828.16;6286667;28;20032;-89
2023/04/02 05:21:56;;;;;;;1.85;1.40;;;;;;;2.58;100.00;100827.47;6271710;28;20052;-89
2023/04/02 05:25:11;;;;;;;2.58;1.20;;;;;;;2.55;100.00;100832.69;6301779;28;20051;-89
2023/04/02 05:28:51;;;;;;;3.50;1.45;;;;;;;2.57;100.00;100848.78;6287706;28;20122;-89
2023/04/02 05:32:08;;;;;;;2.08;1.50;;;;;;;2.63;100.00;100852.81;6282102;28;20048;-89
2023/04/02 05:35:15;;;;;;;3.35;1.55;;;;;;;2.62;100.00;100855.44;6284420;28;20048;-89
2023/04/02 05:38:25;;;;;;;5.03;1.50;;;;;;;2.66;100.00;100862.94;6279469;28;20113;-89
2023/04/02 05:41:35;;;;;;;3.05;1.23;;;;;;;2.71;100.00;100868.69;6285196;28;20147;-89
2023/04/02 05:44:48;;;;;;;1.98;1.13;;;;;;;2.80;100.00;100867.47;6283137;28;20080;-89
2023/04/02 05:47:58;;;;;;;2.53;1.33;;;;;;;2.84;100.00;100876.66;6283454;28;20037;-89
2023/04/02 05:51:10;;;;;;;1.35;1.15;;;;;;;2.87;100.00;100886.75;6279470;28;20051;-89
2023/04/02 05:54:44;;;;;;;1.33;1.10;;;;;;;2.94;100.00;100889.91;6281705;28;20040;-88
2023/04/02 05:57:50;;;;;;;3.42;1.20;;;;;;;2.96;100.00;100901.75;6286942;28;20062;-89
2023/04/02 06:01:50;;;;;;;2.40;1.10;;;;;;;3.01;100.00;100904.94;6269952;28;20182;-88
2023/04/02 06:05:06;;;;;;;7.32;1.33;;;;;;;2.99;100.00;100906.72;6278962;28;20043;-89
2023/04/02 06:08:19;;;;;;;2.63;1.00;;;;;;;3.00;100.00;100915.22;6288106;28;20276;-89
2023/04/02 06:11:31;;;;;;;1.52;1.00;;;;;;;3.03;100.00;100922.75;6287033;28;20044;-88
2023/04/02 06:14:36;;;;;;;5.32;1.33;;;;;;;3.10;100.00;100929.28;6261139;28;20056;-88
2023/04/02 06:17:52;;;;;;;3.53;1.90;;;;;;;3.16;100.00;100923.09;6264254;28;20055;-89
2023/04/02 06:20:54;;;;;;;3.45;1.70;;;;;;;3.15;100.00;100939.31;6279132;28;20048;-88
2023/04/02 06:24:01;;;;;;;2.03;1.20;;;;;;;3.21;100.00;100950.16;6285084;28;20092;-88
2023/04/02 06:27:09;;;;;;;2.90;1.00;;;;;;;3.35;100.00;100964.06;6280806;28;20466;-89
2023/04/02 06:30:25;;;;;;;1.75;1.40;;;;;;;3.32;100.00;100961.66;6284767;28;20494;-89
2023/04/02 06:33:28;;;;;;;3.83;1.35;;;;;;;3.33;100.00;100963.31;6275201;28;20518;-88
2023/04/02 06:36:31;;;;;;;2.63;1.30;;;;;;;3.35;100.00;100974.31;6275453;28;20040;-88
2023/04/02 06:39:37;;;;;;;2.88;1.20;;;;;;;3.45;100.00;100980.69;6284283;28;20052;-89
2023/04/02 06:42:41;;;;;;;2.20;1.50;;;;;;;3.53;100.00;100981.22;6277743;28;20583;-88
2023/04/02 06:46:27;;;;;;;3.83;1.13;;;;;;;3.59;100.00;100990.38;6276688;28;20114;-88
2023/04/02 06:49:33;;;;;;;4.00;1.20;;;;;;;3.60;100.00;100992.88;6281872;28;20578;-88
2023/04/02 06:52:52;;;;;;;2.28;1.20;;;;;;;3.62;100.00;100998.75;6281916;28;20036;-89
2023/04/02 06:56:19;;;;;;;3.97;1.35;;;;;;;3.63;100.00;101005.53;6278745;28;20114;-89
2023/04/02 06:59:21;;;;;;;3.95;1.45;;;;;;;3.68;100.00;101018.16;6280829;28;20041;-89
2023/04/02 07:02:33;;;;;;;3.58;1.45;;;;;;;3.67;100.00;101022.41;6273298;28;20068;-88
2023/04/02 07:05:41;;;;;;;5.28;1.58;;;;;;;3.70;100.00;101028.31;6281047;28;20072;-88
2023/04/02 07:08:44;;;;;;;3.55;1.30;;;;;;;3.71;100.00;101023.13;6281054;28;20072;-88
2023/04/02 07:11:47;;;;;;;4.53;1.50;;;;;;;3.80;100.00;101027.00;6280704;28;20051;-88
2023/04/02 07:14:52;;;;;;;2.25;1.38;;;;;;;3.90;100.00;101030.88;6264436;28;20072;-88
2023/04/02 07:18:00;;;;;;;2.90;1.38;;;;;;;4.02;100.00;101048.25;6269696;28;20102;-88
2023/04/02 07:21:02;;;;;;;3.15;1.80;;;;;;;4.13;100.00;101046.97;6284102;28;20482;-88
2023/04/02 07:24:05;;;;;;;3.83;1.20;;;;;;;4.15;100.00;101050.28;6283656;28;20041;-89
2023/04/02 07:27:09;;;;;;;1.63;1.17;;;;;;;4.14;100.00;101056.31;6282752;28;20048;-89
2023/04/02 07:30:15;;;;;;;4.07;1.73;;;;;;;4.12;100.00;101064.06;6283469;28;20040;-88
2023/04/02 07:33:20;;;;;;;4.47;2.47;;;;;;;4.18;100.00;101068.09;6284162;28;20040;-89
2023/04/02 07:36:23;;;;;;;2.47;1.40;;;;;;;4.21;100.00;101079.03;6266040;28;20174;-88
2023/04/02 07:39:25;;;;;;;4.65;1.48;;;;;;;4.19;100.00;101080.81;6280071;28;20068;-88
2023/04/02 07:42:27;;;;;;;3.58;1.70;;;;;;;4.27;100.00;101078.78;6283867;28;20394;-88
2023/04/02 07:45:28;;;;;;;1.58;1.25;;;;;;;4.36;100.00;101087.78;6281422;28;20739;-88
2023/04/02 07:48:30;;;;;;;2.03;1.40;;;;;;;4.44;100.00;101090.00;6283985;28;20093;-88
2023/04/02 07:51:32;;;;;;;2.25;1.00;;;;;;;4.41;100.00;101098.66;6283096;28;20444;-89
2023/04/02 07:54:38;;;;;;;2.28;1.45;;;;;;;4.38;100.00;101103.94;6285175;28;20044;-89
2023/04/02 07:57:48;;;;;;;2.78;1.60;;;;;;;4.42;100.00;101117.44;6282784;28;20040;-88
2023/04/02 08:00:50;;;;;;;3.42;1.33;;;;;;;4.50;100.00;101128.19;6282834;28;20045;-89
2023/04/02 08:03:56;;;;;;;1.80;1.42;;;;;;;4.53;100.00;101136.56;6266691;28;20060;-88
2023/04/02 08:07:01;;;;;;;3.42;1.50;;;;;;;4.58;100.00;101138.94;6271313;28;20487;-88
2023/04/02 08:10:04;;;;;;;3.47;1.40;;;;;;;4.67;100.00;101138.53;6279585;28;20394;-88
2023/04/02 08:13:06;;;;;;;2.13;1.10;;;;;;;4.65;100.00;101135.22;6280162;28;20049;-88
2023/04/02 08:16:08;;;;;;;3.72;1.80;;;;;;;4.74;100.00;101146.78;6282622;28;20036;-88
2023/04/02 08:19:13;;;;;;;2.63;1.20;;;;;;;4.75;100.00;101151.84;6278577;28;20051;-88
2023/04/02 08:22:15;;;;;;;1.67;1.17;;;;;;;4.81;100.00;101162.72;6281690;28;20286;-88
2023/04/02 08:25:18;;;;;;;3.80;1.65;;;;;;;4.86;100.00;101166.75;6283449;28;20372;-88
2023/04/02 08:28:21;;;;;;;2.55;1.38;;;;;;;4.91;100.00;101169.09;6274190;28;20093;-89
2023/04/02 08:31:23;;;;;;;4.10;1.23;;;;;;;4.95;100.00;101163.78;6277525;28;20033;-88
2023/04/02 08:34:26;;;;;;;2.20;1.00;;;;;;;4.92;100.00;101174.19;6272904;28;20105;-88
2023/04/02 08:37:28;;;;;;;2.88;1.20;;;;;;;5.06;100.00;101175.28;6273770;28;20055;-88
2023/04/02 08:40:40;;;;;;;2.60;1.30;;;;;;;5.21;100.00;101182.28;6283988;28;20454;-89
2023/04/02 08:44:19;;;;;;;1.88;1.15;;;;;;;5.14;100.00;101186.88;6280001;28;20052;-88
2023/04/02 08:47:24;;;;;;;1.48;1.30;;;;;;;5.21;100.00;101201.97;6274715;28;20049;-89
2023/04/02 08:50:34;;;;;;;5.35;1.50;;;;;;;5.24;100.00;101195.00;6280666;28;20064;-88
2023/04/02 08:53:40;;;;;;;2.72;1.35;;;;;;;5.32;100.00;101207.47;6282714;28;20162;-88
2023/04/02 08:56:51;;;;;;;2.17;1.10;;;;;;;5.30;100.00;101211.84;6259849;28;20098;-88
2023/04/02 09:00:12;;;;;;;2.13;1.02;;;;;;;5.28;100.00;101216.19;6286675;28;20037;-88
2023/04/02 09:03:19;;;;;;;2.83;1.17;;;;;;;5.24;100.00;101227.50;6279105;28;20407;-88
2023/04/02 09:06:22;;;;;;;1.90;1.10;;;;;;;5.29;100.00;101223.84;6285310;28;20048;-88
2023/04/02 09:09:24;;;;;;;4.43;1.70;;;;;;;5.38;100.00;101235.41;6287464;28;20064;-88
2023/04/02 09:12:29;;;;;;;3.88;1.60;;;;;;;5.42;100.00;101241.25;6286893;28;20118;-88
2023/04/02 09:15:35;;;;;;;1.60;0.90;;;;;;;5.47;100.00;101244.44;6283599;28;20040;-88
2023/04/02 09:18:38;;;;;;;1.92;1.13;;;;;;;5.47;100.00;101252.13;6283813;28;20041;-86
2023/04/02 09:21:47;;;;;;;2.17;1.05;;;;;;;5.48;100.00;101262.31;6278476;28;20060;-87
2023/04/02 09:24:54;;;;;;;2.95;1.13;;;;;;;5.50;100.00;101269.97;6285891;28;20403;-87
2023/04/02 09:27:59;;;;;;;2.67;1.20;;;;;;;5.57;100.00;101266.22;6275336;28;20686;-87
2023/04/02 09:31:28;;;;;;;3.35;1.15;;;;;;;5.60;100.00;101276.34;6284031;28;20044;-87
2023/04/02 09:34:33;;;;;;;4.65;1.45;;;;;;;5.69;100.00;101269.94;6283010;28;20049;-87
2023/04/02 09:37:36;;;;;;;3.60;1.08;;;;;;;5.89;100.00;101274.13;6278223;28;20047;-88
2023/04/02 09:40:59;;;;;;;4.57;1.60;;;;;;;6.08;100.00;101281.84;6285857;28;20609;-87
2023/04/02 09:44:29;;;;;;;3.63;1.40;;;;;;;6.32;100.00;101278.09;6285941;28;20048;-87
2023/04/02 09:47:30;;;;;;;2.58;1.30;;;;;;;6.37;100.00;101291.56;6280414;28;20052;-87
2023/04/02 09:50:33;;;;;;;4.15;1.42;;;;;;;6.42;100.00;101307.59;6275459;28;20078;-87
2023/04/02 09:53:51;;;;;;;1.92;1.05;;;;;;;6.39;100.00;101309.47;6284350;28;20075;-87
2023/04/02 09:56:59;;;;;;;1.50;1.15;;;;;;;6.36;100.00;101315.59;6280640;28;20041;-87
2023/04/02 10:00:25;;;;;;;2.53;1.10;;;;;;;6.38;100.00;101324.06;6285199;28;20432;-87
2023/04/02 10:03:42;;;;;;;2.70;1.38;;;;;;;6.43;100.00;101322.13;6280739;28;20446;-87
2023/04/02 10:06:49;;;;;;;6.82;2.30;;;;;;;6.33;100.00;101335.47;6285960;28;20033;-87
2023/04/02 10:10:00;;;;;;;3.00;1.20;;;;;;;6.26;100.00;101337.53;6279690;28;20032;-87
2023/04/02 10:13:18;;;;;;;2.25;1.23;;;;;;;6.28;100.00;101340.84;6283674;28;20044;-87
2023/04/02 10:16:32;;;;;;;3.17;1.13;;;;;;;6.53;100.00;101348.19;6275945;28;20170;-87
2023/04/02 10:19:49;;;;;;;2.13;1.42;;;;;;;6.84;100.00;101347.53;6281236;28;20073;-86
2023/04/02 10:22:51;;;;;;;3.90;1.50;;;;;;;6.95;100.00;101354.69;6281075;28;20040;-87
2023/04/02 10:26:24;;;;;;;4.40;1.25;;;;;;;6.95;100.00;101359.03;6282379;28;20473;-87
2023/04/02 10:30:01;;;;;;;3.03;1.30;;;;;;;6.92;100.00;101359.19;6281213;28;20045;-87
2023/04/02 10:33:20;;;;;;;3.92;1.25;;;;;;;7.13;100.00;101368.41;6280908;28;20409;-87
2023/04/02 10:36:29;;;;;;;3.42;1.60;;;;;;;7.20;100.00;101362.00;6275383;28;20041;-87
2023/04/02 10:39:48;;;;;;;2.20;0.93;;;;;;;7.41;100.00;101370.38;6284119;28;20508;-87
2023/04/02 10:43:33;;;;;;;1.55;1.13;;;;;;;7.64;100.00;101369.16;6277556;28;20064;-86
2023/04/02 10:46:42;;;;;;;1.48;1.02;;;;;;;7.80;100.00;101379.50;6282415;28;20044;-87
2023/04/02 10:50:03;;;;;;;4.05;1.60;;;;;;;7.95;100.00;101377.84;6281503;28;20053;-87
2023/04/02 10:53:15;;;;;;;1.48;1.05;;;;;;;8.08;100.00;101384.00;6277395;28;20397;-87
2023/04/02 10:56:17;;;;;;;3.55;1.08;;;;;;;8.14;100.00;101382.81;6265307;28;20131;-87
2023/04/02 10:59:40;;;;;;;1.45;1.00;;;;;;;8.24;100.00;101388.28;6282806;28;20037;-87
2023/04/02 11:03:12;;;;;;;2.28;1.15;;;;;;;8.30;100.00;101399.13;6281694;28;20048;-87
2023/04/02 11:06:17;;;;;;;3.67;1.10;;;;;;;8.39;100.00;101408.06;6281070;28;20048;-87
2023/04/02 11:09:24;;;;;;;3.53;1.20;;;;;;;8.62;100.00;101396.47;6279408;28;20123;-87
2023/04/02 11:12:56;;;;;;;3.47;1.45;;;;;;;8.75;100.00;101407.78;6275977;28;20525;-87
2023/04/02 11:15:58;;;;;;;1.63;1.08;;;;;;;8.90;100.00;101413.00;6282197;28;20769;-87
2023/04/02 11:19:15;;;;;;;4.35;1.10;;;;;;;9.01;100.00;101410.63;6281027;28;20418;-87
2023/04/02 11:22:24;;;;;;;2.42;1.02;;;;;;;9.14;100.00;101414.16;6284986;28;20497;-87
2023/04/02 11:25:27;;;;;;;2.20;1.05;;;;;;;9.06;100.00;101417.16;6282992;28;20038;-87
2023/04/02 11:28:31;;;;;;;2.28;1.10;;;;;;;9.11;100.00;101419.50;6285194;28;20132;-87
2023/04/02 11:31:35;;;;;;;1.88;1.10;;;;;;;9.36;100.00;101423.22;6283907;28;20044;-87
2023/04/02 11:34:41;;;;;;;2.55;1.17;;;;;;;9.33;100.00;101423.41;6275738;28;20049;-87
2023/04/02 11:37:45;;;;;;;4.63;1.67;;;;;;;9.20;100.00;101420.72;6284581;28;20545;-87
2023/04/02 11:40:57;;;;;;;3.78;1.25;;;;;;;9.24;100.00;101423.03;6275895;28;20045;-87
2023/04/02 11:44:00;;;;;;;2.25;0.95;;;;;;;9.53;100.00;101432.56;6278901;28;20036;-87
2023/04/02 11:47:25;;;;;;;1.55;1.00;;;;;;;9.76;100.00;101441.50;6284335;28;20126;-87
2023/04/02 11:50:39;;;;;;;2.58;1.00;;;;;;;9.98;100.00;101433.25;6278319;28;20454;-87
2023/04/02 11:53:41;;;;;;;4.72;1.48;;;;;;;10.22;100.00;101444.66;6283600;28;20052;-87
2023/04/02 11:56:57;;;;;;;7.20;2.28;;;;;;;10.38;100.00;101449.72;6274293;28;20487;-87
2023/04/02 12:00:19;;;;;;;2.58;1.45;;;;;;;10.44;100.00;101454.53;6275005;28;20551;-87
2023/04/02 12:03:31;;;;;;;4.30;1.10;;;;;;;10.71;100.00;101449.34;6276662;28;20039;-88
2023/04/02 12:07:11;;;;;;;3.80;1.00;;;;;;;10.80;100.00;101453.09;6277357;28;20063;-88
2023/04/02 12:10:20;;;;;;;3.97;1.25;;;;;;;10.52;100.00;101454.03;6277630;28;20600;-88
2023/04/02 12:13:40;;;;;;;2.80;1.10;;;;;;;10.12;100.00;101459.09;6282793;28;20481;-88
2023/04/02 12:16:43;;;;;;;4.60;1.10;;;;;;;9.65;100.00;101453.31;6280474;28;20045;-88
2023/04/02 12:19:47;;;;;;;1.55;1.17;;;;;;;9.24;100.00;101460.94;6261221;28;20044;-88
2023/04/02 12:22:53;;;;;;;1.52;1.10;;;;;;;8.77;100.00;101461.91;6277906;28;20084;-88
2023/04/02 12:26:05;;;;;;;1.30;0.75;;;;;;;8.53;100.00;101459.78;6274884;28;20549;-88
2023/04/02 12:29:20;;;;;;;2.70;1.05;;;;;;;8.23;100.00;101469.19;6284403;28;20079;-88
2023/04/02 12:32:30;;;;;;;2.85;1.00;;;;;;;8.00;100.00;101460.94;6285653;28;20608;-88
2023/04/02 12:35:35;;;;;;;2.25;1.00;;;;;;;8.18;100.00;101459.94;6288306;28;20748;-88
2023/04/02 12:38:57;;;;;;;4.75;1.75;;;;;;;8.34;100.00;101461.69;6287452;28;20117;-88
2023/04/02 12:41:58;;;;;;;2.40;1.30;;;;;;;8.63;100.00;101454.94;6287695;28;20178;-88
2023/04/02 12:45:02;;;;;;;3.72;1.40;;;;;;;9.15;100.00;101446.81;6287773;28;20565;-88
2023/04/02 12:48:05;;;;;;;1.52;1.00;;;;;;;9.20;100.00;101455.13;6286944;28;20596;-88
2023/04/02 12:51:09;;;;;;;4.45;2.10;;;;;;;9.42;100.00;101457.28;6266526;28;20287;-89
2023/04/02 12:54:16;;;;;;;2.55;1.00;;;;;;;9.86;100.00;101458.97;6272191;28;20048;-88
2023/04/02 12:57:25;;;;;;;2.05;1.20;;;;;;;10.24;100.00;101462.69;6268757;28;20119;-88
2023/04/02 13:00:29;;;;;;;6.72;1.58;;;;;;;10.77;100.00;101456.69;6264587;28;20036;-89
2023/04/02 13:03:32;;;;;;;2.30;1.30;;;;;;;11.42;100.00;101466.22;6279454;28;20041;-89
2023/04/02 13:06:35;;;;;;;3.10;1.45;;;;;;;11.45;100.00;101459.19;6286066;28;20131;-89
2023/04/02 13:09:45;;;;;;;1.52;0.85;;;;;;;11.65;100.00;101461.22;6286935;28;20048;-89
2023/04/02 13:12:47;;;;;;;2.15;0.80;;;;;;;11.99;100.00;101453.75;6277478;28;20142;-89
2023/04/02 13:16:01;;;;;;;2.67;1.65;;;;;;;12.47;100.00;101459.84;6283977;28;20516;-89
2023/04/02 13:19:22;;;;;;;2.22;1.00;;;;;;;12.83;97.91;101458.09;6286483;28;20139;-89
2023/04/02 13:22:33;;;;;;;2.22;1.40;;;;;;;12.50;94.63;101467.41;6278017;28;20461;-89
2023/04/02 13:25:35;;;;;;;1.70;0.70;;;;;;;12.27;98.25;101463.88;6283719;28;20550;-89
2023/04/02 13:28:37;;;;;;;1.85;1.00;;;;;;;12.01;100.00;101462.28;6284214;28;20056;-89
2023/04/02 13:31:40;;;;;;;2.55;0.98;;;;;;;11.81;100.00;101471.41;6277577;28;20043;-88
2023/04/02 13:34:42;;;;;;;3.03;1.13;;;;;;;11.41;100.00;101480.13;6271186;28;20056;-88
2023/04/02 13:37:44;;;;;;;5.07;1.02;;;;;;;10.97;100.00;101470.13;6281784;28;20040;-88
2023/04/02 13:40:47;;;;;;;2.75;0.80;;;;;;;10.69;100.00;101486.63;6281700;28;20029;-88
2023/04/02 13:43:59;;;;;;;1.45;1.00;;;;;;;10.45;100.00;101478.66;6284986;28;20402;-89
2023/04/02 13:47:01;;;;;;;2.78;0.95;;;;;;;10.23;100.00;101481.72;6283575;28;20045;-88
2023/04/02 13:50:02;;;;;;;3.13;0.68;;;;;;;9.99;100.00;101489.25;6282219;28;20033;-88
2023/04/02 13:53:07;;;;;;;3.38;1.38;;;;;;;9.72;100.00;101486.56;6284669;28;20166;-88
2023/04/02 13:56:11;;;;;;;1.92;1.00;;;;;;;9.40;100.00;101490.13;6279542;28;20037;-88
2023/04/02 13:59:13;;;;;;;1.75;0.80;;;;;;;9.41;100.00;101485.78;6279938;28;20127;-88
2023/04/02 14:02:20;;;;;;;1.73;0.80;;;;;;;9.43;100.00;101479.59;6285393;28;20036;-88
2023/04/02 14:05:41;;;;;;;2.72;0.80;;;;;;;9.98;100.00;101478.03;6279146;28;20044;-88
2023/04/02 14:08:50;;;;;;;1.83;0.77;;;;;;;10.55;100.00;101493.50;6284801;28;20056;-89
2023/04/02 14:12:02;;;;;;;0.90;0.52;;;;;;;10.84;100.00;101496.00;6285179;28;20040;-88
2023/04/02 14:15:38;;;;;;;0.70;0.57;;;;;;;11.29;100.00;101485.31;6265757;28;20102;-88
2023/04/02 14:18:58;;;;;;;1.35;0.82;;;;;;;11.78;100.00;101488.00;6265242;28;20044;-88
2023/04/02 14:22:34;;;;;;;4.10;0.60;;;;;;;12.66;99.52;101493.09;6278331;28;20609;-88
2023/04/02 14:26:10;;;;;;;2.15;0.88;;;;;;;12.98;94.33;101502.91;6264117;28;20055;-89
2023/04/02 14:29:41;;;;;;;2.60;0.50;;;;;;;11.83;85.09;101496.31;6283251;28;20032;-89
2023/04/02 14:33:04;;;;;;;;;;;;;;;11.42;92.33;101497.34;6263063;28;20074;-88
2023/04/02 14:36:13;;;;;;;1.25;0.57;;;;;;;11.80;100.00;101498.25;6184441;28;20085;-91
2023/04/02 14:39:31;;;;;;;2.78;0.90;;;;;;;12.54;96.76;101506.97;6174043;28;20436;-90
2023/04/02 14:42:57;;;;;;;1.35;0.68;;;;;;;12.57;87.40;101506.75;6179525;28;20081;-90
2023/04/02 14:46:02;;;;;;;0.77;0.50;;;;;;;11.91;95.70;101513.16;6182689;28;20050;-90
2023/04/02 14:49:25;;;;;;;4.15;0.90;;;;;;;11.30;98.34;101510.28;6163837;28;20054;-90
2023/04/02 14:52:32;;;;;;;2.47;1.05;;;;;;;10.84;95.61;101532.25;6183263;28;20058;-91